Time;durP1;ratioP1;P1;durP2;ratioP2;P2;SDS_P1;SDS_P2;PMS_P1;PMS_P2;Temp;Humidity;BMP_temperature;BMP_pressure;BME280_temperature;BME280_humidity;BME280_pressure;Samples;Min_cycle;Max_cycle;Signal;HPM_P1;HPM_P2
2021/12/28 00:01:59;;;;;;;69.35;32.47;;;2.50;99.90;;;;;;5059393;28;20458;-76
2021/12/28 00:04:24;;;;;;;69.45;31.98;;;2.50;99.90;;;;;;5053591;28;20139;-78
2021/12/28 00:06:50;;;;;;;69.95;34.05;;;2.50;99.90;;;;;;5053232;28;20028;-77
2021/12/28 00:09:15;;;;;;;68.28;32.75;;;2.50;99.90;;;;;;5053456;28;20020;-75
2021/12/28 00:11:41;;;;;;;72.10;32.42;;;2.50;99.90;;;;;;5035849;28;20013;-76
2021/12/28 00:14:07;;;;;;;64.40;31.38;;;2.60;99.90;;;;;;5054855;28;20100;-77
2021/12/28 00:19:17;;;;;;;71.65;32.17;;;2.60;99.90;;;;;;5053665;28;20036;-78
2021/12/28 00:21:42;;;;;;;64.43;31.27;;;2.60;99.90;;;;;;5053727;28;20033;-79
2021/12/28 00:24:08;;;;;;;68.15;32.63;;;2.60;99.90;;;;;;5035422;28;20108;-76
2021/12/28 00:26:34;;;;;;;64.38;30.70;;;2.60;99.90;;;;;;5053156;28;20029;-75
2021/12/28 00:28:59;;;;;;;64.65;30.13;;;2.60;99.90;;;;;;5053155;28;20029;-76
2021/12/28 00:31:26;;;;;;;66.57;31.08;;;2.70;99.90;;;;;;5053110;28;20032;-78
2021/12/28 00:33:53;;;;;;;67.80;31.30;;;2.60;99.90;;;;;;5053087;28;20421;-78
2021/12/28 00:36:19;;;;;;;65.47;31.33;;;2.60;99.90;;;;;;5052932;28;20071;-78
2021/12/28 00:38:44;;;;;;;71.90;32.67;;;2.70;99.90;;;;;;5077309;23;20048;-79
2021/12/28 00:41:10;;;;;;;71.75;32.00;;;2.70;99.90;;;;;;5058835;28;20016;-79
2021/12/28 00:43:36;;;;;;;64.28;31.60;;;2.70;99.90;;;;;;5040367;28;20025;-79
2021/12/28 00:46:02;;;;;;;65.50;32.47;;;2.70;99.90;;;;;;5040203;28;20029;-79
2021/12/28 00:48:28;;;;;;;69.60;32.95;;;2.70;99.90;;;;;;5048203;28;20041;-79
2021/12/28 00:50:55;;;;;;;69.32;32.47;;;2.70;99.90;;;;;;5019801;28;20105;-79
2021/12/28 00:53:22;;;;;;;65.13;31.52;;;2.70;99.90;;;;;;5039146;28;20489;-77
2021/12/28 00:55:48;;;;;;;71.30;30.27;;;2.70;99.90;;;;;;5045167;28;20048;-79
2021/12/28 00:58:14;;;;;;;71.57;31.45;;;2.70;99.90;;;;;;5054874;28;20077;-78
2021/12/28 01:00:40;;;;;;;62.80;30.42;;;2.70;99.90;;;;;;5032609;28;20382;-76
2021/12/28 01:03:08;;;;;;;63.55;31.45;;;2.70;99.90;;;;;;5051172;28;20104;-79
2021/12/28 01:05:34;;;;;;;63.95;31.52;;;2.70;99.90;;;;;;5048587;28;20032;-79
2021/12/28 01:08:00;;;;;;;63.00;30.90;;;2.70;99.90;;;;;;5043154;28;20072;-78
2021/12/28 01:10:35;;;;;;;65.28;31.42;;;2.70;99.90;;;;;;5041238;28;20022;-78
2021/12/28 01:13:01;;;;;;;62.30;30.42;;;2.80;99.90;;;;;;5041319;28;20026;-79
2021/12/28 01:15:28;;;;;;;65.60;31.25;;;2.70;99.90;;;;;;5051508;28;20048;-77
2021/12/28 01:17:53;;;;;;;73.32;33.13;;;2.70;99.90;;;;;;5053955;28;20037;-78
2021/12/28 01:20:19;;;;;;;63.70;31.20;;;2.70;99.90;;;;;;5034511;28;20064;-78
2021/12/28 01:22:47;;;;;;;64.15;31.45;;;2.70;99.90;;;;;;5053380;28;20056;-77
2021/12/28 01:25:15;;;;;;;64.55;30.98;;;2.70;99.90;;;;;;5049774;28;20048;-79
2021/12/28 01:27:41;;;;;;;63.08;32.15;;;2.70;99.90;;;;;;5039784;28;20470;-78
2021/12/28 01:30:09;;;;;;;62.88;30.33;;;2.70;99.90;;;;;;5051592;28;20013;-78
2021/12/28 01:32:35;;;;;;;63.72;31.27;;;2.80;99.90;;;;;;5044875;28;20025;-80
2021/12/28 01:35:01;;;;;;;63.80;31.85;;;2.60;99.90;;;;;;5041848;28;20026;-79
2021/12/28 01:37:27;;;;;;;64.38;30.92;;;2.60;99.90;;;;;;5041790;28;20163;-78
2021/12/28 01:39:52;;;;;;;68.70;32.78;;;2.70;99.90;;;;;;5043033;28;20493;-78
2021/12/28 01:42:18;;;;;;;59.58;30.38;;;2.70;99.90;;;;;;5041841;28;20040;-78
2021/12/28 01:44:44;;;;;;;63.17;30.17;;;2.70;99.90;;;;;;5027020;28;20305;-79
2021/12/28 01:47:12;;;;;;;63.47;31.35;;;2.80;99.90;;;;;;5044179;28;20032;-79
2021/12/28 01:49:38;;;;;;;62.95;30.85;;;2.70;99.90;;;;;;5042106;28;20017;-78
2021/12/28 01:52:04;;;;;;;61.53;29.33;;;2.70;99.90;;;;;;5041237;28;20026;-79
2021/12/28 01:54:30;;;;;;;66.13;30.88;;;2.70;99.90;;;;;;5040872;28;20021;-78
2021/12/28 01:56:55;;;;;;;62.90;31.13;;;2.80;99.90;;;;;;5037836;28;20029;-78
2021/12/28 01:59:22;;;;;;;66.20;31.88;;;2.70;99.90;;;;;;5039836;28;20418;-78
2021/12/28 02:01:49;;;;;;;66.72;30.48;;;2.80;99.90;;;;;;5020671;28;20030;-78
2021/12/28 02:04:25;;;;;;;61.88;29.80;;;2.80;99.90;;;;;;5038422;28;20033;-79
2021/12/28 02:06:58;;;;;;;65.97;31.40;;;2.70;99.90;;;;;;5039826;28;20366;-79
2021/12/28 02:09:24;;;;;;;67.40;30.38;;;2.70;99.90;;;;;;5040230;28;20026;-79
2021/12/28 02:11:52;;;;;;;68.28;32.22;;;2.70;99.90;;;;;;5040502;28;20021;-77
2021/12/28 02:14:18;;;;;;;66.82;32.35;;;2.70;99.90;;;;;;5040176;28;20018;-79
2021/12/28 02:16:44;;;;;;;64.80;31.05;;;2.80;99.90;;;;;;5047378;28;20021;-78
2021/12/28 02:19:12;;;;;;;63.13;30.75;;;2.70;99.90;;;;;;5051024;28;20036;-79
2021/12/28 02:21:38;;;;;;;65.30;30.60;;;2.70;99.90;;;;;;5028930;28;20025;-77
2021/12/28 02:24:06;;;;;;;63.70;30.30;;;2.70;99.90;;;;;;5042960;28;20029;-79
2021/12/28 02:26:32;;;;;;;67.10;30.48;;;2.70;99.90;;;;;;5045391;28;20080;-79
2021/12/28 02:28:58;;;;;;;59.25;29.60;;;2.70;99.90;;;;;;5043811;28;20470;-77
2021/12/28 02:31:25;;;;;;;66.53;31.88;;;2.80;99.90;;;;;;5026706;28;20009;-77
2021/12/28 02:33:51;;;;;;;66.30;29.80;;;2.70;99.90;;;;;;5050233;28;20018;-77
2021/12/28 02:36:18;;;;;;;67.05;30.90;;;2.70;99.90;;;;;;5057862;28;20033;-77
2021/12/28 02:38:45;;;;;;;65.93;31.45;;;2.70;99.90;;;;;;5034602;28;20022;-78
2021/12/28 02:41:11;;;;;;;61.30;30.75;;;2.70;99.90;;;;;;5054401;28;20085;-77
2021/12/28 02:43:38;;;;;;;62.47;30.10;;;2.80;99.90;;;;;;5053110;28;20021;-79
2021/12/28 02:46:05;;;;;;;59.88;30.48;;;2.70;99.90;;;;;;5026619;28;20018;-79
2021/12/28 02:48:32;;;;;;;66.30;29.63;;;2.70;99.90;;;;;;5045146;28;20032;-79
2021/12/28 02:51:08;;;;;;;68.38;31.92;;;2.90;99.90;;;;;;5046043;28;20025;-78
2021/12/28 02:53:34;;;;;;;66.13;31.00;;;2.90;99.90;;;;;;5047440;28;20373;-79
2021/12/28 02:56:01;;;;;;;61.70;30.55;;;3.00;99.90;;;;;;5047840;28;20097;-80
2021/12/28 02:58:37;;;;;;;63.45;30.23;;;3.10;99.90;;;;;;5043742;28;20025;-79
2021/12/28 03:01:22;;;;;;;63.05;30.45;;;3.10;99.90;;;;;;5033838;28;20036;-79
2021/12/28 03:03:52;;;;;;;63.17;30.30;;;3.10;99.90;;;;;;5055921;28;20033;-78
2021/12/28 03:06:21;;;;;;;67.45;30.52;;;3.20;99.90;;;;;;5054448;28;20033;-79
2021/12/28 03:08:51;;;;;;;60.50;30.50;;;3.20;99.90;;;;;;5048825;28;20070;-80
2021/12/28 03:11:17;;;;;;;66.78;31.63;;;3.30;99.90;;;;;;5038153;28;20021;-80
2021/12/28 03:13:47;;;;;;;61.55;30.08;;;3.30;99.90;;;;;;5037918;28;20036;-79
2021/12/28 03:16:14;;;;;;;63.20;29.77;;;3.30;99.90;;;;;;5047441;28;20018;-79
2021/12/28 03:18:40;;;;;;;66.22;31.92;;;3.30;99.90;;;;;;5032110;28;20013;-78
2021/12/28 03:21:07;;;;;;;64.70;29.88;;;3.30;99.90;;;;;;5057379;28;20036;-78
2021/12/28 03:23:34;;;;;;;63.85;30.58;;;3.30;99.90;;;;;;5058020;28;20040;-78
2021/12/28 03:26:00;;;;;;;63.38;30.50;;;3.30;99.90;;;;;;5057587;28;20036;-77
2021/12/28 03:28:28;;;;;;;66.82;31.67;;;3.30;99.90;;;;;;5055285;28;20073;-79
2021/12/28 03:30:56;;;;;;;66.90;30.98;;;3.30;99.90;;;;;;5047048;28;20029;-79
2021/12/28 03:33:24;;;;;;;68.13;32.17;;;3.20;99.90;;;;;;5047179;28;20021;-79
2021/12/28 03:35:50;;;;;;;70.22;33.03;;;3.20;99.90;;;;;;5046401;28;20470;-80
2021/12/28 03:38:17;;;;;;;70.88;32.83;;;3.00;99.90;;;;;;5050213;28;20033;-78
2021/12/28 03:40:44;;;;;;;69.30;32.60;;;2.90;99.90;;;;;;5055023;28;20055;-78
2021/12/28 03:43:09;;;;;;;68.20;32.45;;;2.90;99.90;;;;;;5052827;28;20068;-80
2021/12/28 03:45:35;;;;;;;72.68;33.00;;;2.90;99.90;;;;;;5049531;28;20029;-79
2021/12/28 03:48:01;;;;;;;68.72;31.98;;;2.90;99.90;;;;;;5041425;28;20104;-81
2021/12/28 03:50:27;;;;;;;70.03;32.63;;;2.80;99.90;;;;;;5039799;28;20045;-82
2021/12/28 03:52:54;;;;;;;71.28;32.92;;;2.80;99.90;;;;;;5020741;28;20025;-81
2021/12/28 03:55:22;;;;;;;73.07;33.22;;;2.80;99.90;;;;;;5038473;28;20017;-80
2021/12/28 03:57:49;;;;;;;71.03;32.45;;;2.80;99.90;;;;;;5039041;28;20025;-80
2021/12/28 04:00:17;;;;;;;72.32;34.10;;;2.80;99.90;;;;;;5021107;28;20036;-78
2021/12/28 04:02:42;;;;;;;70.05;33.45;;;2.80;99.90;;;;;;5041772;28;20104;-81
2021/12/28 04:05:09;;;;;;;72.88;34.80;;;2.80;99.90;;;;;;5043319;28;20093;-79
2021/12/28 04:07:35;;;;;;;73.28;33.90;;;2.80;99.90;;;;;;5045445;28;20484;-80
2021/12/28 04:10:04;;;;;;;79.35;35.97;;;2.70;99.90;;;;;;5049172;28;20028;-78
2021/12/28 04:12:31;;;;;;;74.50;34.28;;;2.70;99.90;;;;;;5045853;28;20049;-79
2021/12/28 04:14:57;;;;;;;74.25;34.17;;;2.80;99.90;;;;;;5049143;28;20021;-80
2021/12/28 04:17:25;;;;;;;77.32;34.63;;;2.80;99.90;;;;;;5044091;28;20113;-79
2021/12/28 04:19:50;;;;;;;76.15;33.97;;;2.80;99.90;;;;;;5047265;28;20025;-79
2021/12/28 04:22:16;;;;;;;72.47;33.33;;;2.80;99.90;;;;;;5032491;28;20025;-79
2021/12/28 04:24:42;;;;;;;79.25;35.20;;;2.80;99.90;;;;;;5043762;28;20039;-79
2021/12/28 04:27:07;;;;;;;74.93;34.50;;;2.80;99.90;;;;;;5037932;28;20025;-79
2021/12/28 04:29:33;;;;;;;79.03;35.30;;;2.80;99.90;;;;;;5050568;28;20026;-79
2021/12/28 04:31:59;;;;;;;75.68;34.17;;;2.80;99.90;;;;;;5036698;28;20036;-78
2021/12/28 04:34:24;;;;;;;76.78;36.53;;;2.70;99.90;;;;;;5053289;28;20043;-78
2021/12/28 04:36:50;;;;;;;85.85;37.05;;;2.70;99.90;;;;;;5032954;28;20037;-79
2021/12/28 04:39:16;;;;;;;75.50;34.00;;;2.70;99.90;;;;;;5018659;28;20468;-81
2021/12/28 04:41:42;;;;;;;72.45;34.00;;;2.80;99.90;;;;;;5039185;28;20385;-81
2021/12/28 04:44:11;;;;;;;74.68;34.28;;;2.70;99.90;;;;;;5040552;28;20061;-78
2021/12/28 04:46:36;;;;;;;72.22;33.75;;;2.70;99.90;;;;;;5039465;28;20109;-79
2021/12/28 04:49:02;;;;;;;75.07;35.92;;;2.70;99.90;;;;;;5022277;28;20510;-80
2021/12/28 04:51:28;;;;;;;73.25;34.00;;;2.70;99.90;;;;;;5040738;28;20494;-83
2021/12/28 04:53:55;;;;;;;74.53;33.60;;;2.80;99.90;;;;;;5022182;28;20021;-80
2021/12/28 04:56:21;;;;;;;79.40;35.63;;;2.80;99.90;;;;;;5022617;28;20508;-79
2021/12/28 04:58:47;;;;;;;73.55;34.40;;;2.80;99.90;;;;;;5022077;28;20113;-78
2021/12/28 05:01:12;;;;;;;78.40;35.80;;;2.80;99.90;;;;;;5040745;28;20073;-79
2021/12/28 05:03:38;;;;;;;82.35;36.58;;;2.70;99.90;;;;;;5023613;28;20356;-79
2021/12/28 05:06:04;;;;;;;78.53;37.28;;;2.70;99.90;;;;;;5045649;28;20032;-78
2021/12/28 05:08:29;;;;;;;82.15;36.70;;;2.60;99.90;;;;;;5032096;28;20041;-79
2021/12/28 05:10:55;;;;;;;74.82;35.42;;;2.60;99.90;;;;;;5037487;28;20030;-80
2021/12/28 05:13:21;;;;;;;82.50;36.60;;;2.70;99.90;;;;;;5057467;28;20024;-81
2021/12/28 05:15:48;;;;;;;76.18;35.75;;;2.80;99.90;;;;;;5040593;28;20470;-80
2021/12/28 05:18:14;;;;;;;78.05;35.22;;;2.80;99.90;;;;;;5057447;28;20002;-80
2021/12/28 05:20:40;;;;;;;77.85;35.63;;;2.80;99.90;;;;;;5058040;28;20112;-78
2021/12/28 05:23:06;;;;;;;78.95;36.60;;;2.80;99.90;;;;;;5057386;28;20056;-79
2021/12/28 05:25:33;;;;;;;77.68;36.83;;;2.80;99.90;;;;;;5053379;28;20030;-79
2021/12/28 05:27:59;;;;;;;79.07;34.72;;;2.80;99.90;;;;;;5041763;28;20112;-80
2021/12/28 05:30:25;;;;;;;88.93;36.15;;;2.80;99.90;;;;;;5044873;28;20025;-79
2021/12/28 05:32:50;;;;;;;76.07;34.90;;;2.80;99.90;;;;;;5060560;28;20055;-77
2021/12/28 05:35:16;;;;;;;75.70;34.22;;;2.80;99.90;;;;;;5060208;28;20071;-77
2021/12/28 05:37:42;;;;;;;79.47;34.65;;;2.80;99.90;;;;;;5057771;28;20068;-78
2021/12/28 05:40:11;;;;;;;82.68;37.42;;;2.80;99.90;;;;;;5060388;28;20025;-79
2021/12/28 05:42:37;;;;;;;80.80;35.92;;;2.80;99.90;;;;;;5060457;28;20073;-77
2021/12/28 05:45:04;;;;;;;71.72;34.33;;;2.80;99.90;;;;;;5060285;28;20029;-77
2021/12/28 05:47:30;;;;;;;75.40;36.15;;;2.80;99.90;;;;;;5059905;28;20085;-78
2021/12/28 05:49:55;;;;;;;79.88;36.38;;;2.80;99.90;;;;;;5043027;28;20017;-79
2021/12/28 05:52:21;;;;;;;76.05;35.42;;;2.80;99.90;;;;;;5059267;28;20083;-77
2021/12/28 05:54:47;;;;;;;83.05;37.67;;;2.80;99.90;;;;;;5043204;28;20029;-78
2021/12/28 05:57:13;;;;;;;78.05;37.25;;;2.90;99.90;;;;;;5059766;28;20024;-78
2021/12/28 05:59:39;;;;;;;75.70;34.65;;;2.90;99.90;;;;;;5042697;28;20010;-77
2021/12/28 06:02:06;;;;;;;83.88;36.38;;;2.90;99.90;;;;;;5059843;28;20017;-78
2021/12/28 06:04:32;;;;;;;76.28;36.80;;;2.90;99.90;;;;;;5058964;28;20025;-79
2021/12/28 06:06:58;;;;;;;81.10;37.22;;;2.90;99.90;;;;;;5051324;28;20074;-76
2021/12/28 06:09:24;;;;;;;86.40;34.92;;;2.90;99.90;;;;;;5051277;28;20108;-78
2021/12/28 06:11:49;;;;;;;79.95;36.33;;;2.90;99.90;;;;;;5049360;28;20030;-80
2021/12/28 06:14:15;;;;;;;83.13;36.85;;;3.00;99.90;;;;;;5050488;28;20090;-78
2021/12/28 06:16:41;;;;;;;81.13;36.22;;;2.90;99.90;;;;;;5055729;28;20056;-78
2021/12/28 06:19:07;;;;;;;80.93;36.67;;;2.90;99.90;;;;;;5040764;28;20025;-79
2021/12/28 06:21:35;;;;;;;80.05;35.78;;;2.90;99.90;;;;;;5040004;28;20104;-82
2021/12/28 06:24:02;;;;;;;81.03;38.92;;;2.90;99.90;;;;;;5040022;28;20113;-82
2021/12/28 06:26:28;;;;;;;79.93;37.67;;;2.80;99.90;;;;;;5039603;28;20030;-79
2021/12/28 06:28:54;;;;;;;77.28;37.70;;;2.80;99.90;;;;;;5041865;28;20045;-80
2021/12/28 06:31:20;;;;;;;81.80;38.42;;;2.90;99.90;;;;;;5041454;28;20022;-80
2021/12/28 06:33:46;;;;;;;83.78;38.63;;;2.80;99.90;;;;;;5040864;28;20022;-80
2021/12/28 06:36:12;;;;;;;78.72;37.55;;;2.80;99.90;;;;;;5022618;28;20030;-81
2021/12/28 06:38:37;;;;;;;82.45;37.88;;;2.80;99.90;;;;;;5042279;28;20167;-81
2021/12/28 06:41:03;;;;;;;75.85;37.13;;;2.90;99.90;;;;;;5045584;28;20030;-79
2021/12/28 06:43:29;;;;;;;85.97;39.42;;;2.90;99.90;;;;;;5047579;28;20096;-80
2021/12/28 06:45:55;;;;;;;81.93;37.50;;;2.80;99.90;;;;;;5030798;28;20025;-81
2021/12/28 06:48:21;;;;;;;80.93;38.35;;;2.90;99.90;;;;;;5048023;28;20017;-82
2021/12/28 06:50:47;;;;;;;81.97;37.63;;;2.90;99.90;;;;;;5048929;28;20089;-79
2021/12/28 06:53:13;;;;;;;86.65;38.05;;;2.90;99.90;;;;;;5039286;28;20068;-80
2021/12/28 06:55:38;;;;;;;82.60;39.00;;;2.90;99.90;;;;;;5053502;28;20048;-78
2021/12/28 06:58:05;;;;;;;85.57;39.22;;;2.80;99.90;;;;;;5053184;28;20062;-78
2021/12/28 07:00:31;;;;;;;81.28;38.92;;;2.80;99.90;;;;;;5031906;28;20029;-82
2021/12/28 07:02:57;;;;;;;89.95;40.67;;;2.80;99.90;;;;;;5044681;28;20029;-79
2021/12/28 07:05:22;;;;;;;87.80;41.17;;;2.80;99.90;;;;;;5023630;28;20397;-81
2021/12/28 07:07:48;;;;;;;89.30;39.28;;;2.80;99.90;;;;;;5029088;28;20038;-81
2021/12/28 07:10:14;;;;;;;79.93;38.78;;;2.80;99.90;;;;;;5050914;28;20073;-78
2021/12/28 07:12:41;;;;;;;84.03;40.08;;;2.80;99.90;;;;;;5052737;28;20040;-78
2021/12/28 07:15:07;;;;;;;86.05;40.03;;;2.80;99.90;;;;;;5053208;28;20029;-80
2021/12/28 07:17:33;;;;;;;89.93;40.80;;;2.90;99.90;;;;;;5047719;28;20025;-82
2021/12/28 07:19:59;;;;;;;87.22;40.40;;;2.80;99.90;;;;;;5031296;28;20030;-82
2021/12/28 07:22:24;;;;;;;80.05;39.25;;;2.80;99.90;;;;;;5026981;28;20114;-78
2021/12/28 07:24:50;;;;;;;82.07;38.78;;;2.80;99.90;;;;;;5030800;28;20026;-80
2021/12/28 07:27:16;;;;;;;81.60;38.95;;;2.90;99.90;;;;;;5048643;28;20060;-81
2021/12/28 07:29:41;;;;;;;84.57;40.08;;;2.90;99.90;;;;;;5027053;28;20117;-80
2021/12/28 07:32:08;;;;;;;84.13;39.55;;;2.90;99.90;;;;;;5039533;28;20017;-80
2021/12/28 07:34:34;;;;;;;79.93;37.67;;;2.90;99.90;;;;;;5022625;28;20042;-78
2021/12/28 07:37:00;;;;;;;82.80;39.45;;;2.90;99.90;;;;;;5042054;28;20081;-79
2021/12/28 07:39:26;;;;;;;87.97;40.13;;;2.90;99.90;;;;;;5042409;28;20391;-79
2021/12/28 07:41:52;;;;;;;88.05;41.08;;;2.90;99.90;;;;;;5041992;28;20025;-79
2021/12/28 07:44:17;;;;;;;84.13;39.72;;;2.90;99.90;;;;;;5041500;28;20060;-79
2021/12/28 07:46:43;;;;;;;90.07;41.35;;;2.90;99.90;;;;;;5040468;28;20394;-80
2021/12/28 07:49:09;;;;;;;83.82;39.45;;;2.90;99.90;;;;;;5040288;28;20025;-77
2021/12/28 07:51:34;;;;;;;86.68;40.00;;;2.90;99.90;;;;;;5023525;28;20049;-84
2021/12/28 07:54:00;;;;;;;80.50;39.08;;;3.00;99.90;;;;;;5045860;28;20048;-79
2021/12/28 07:56:26;;;;;;;80.63;39.05;;;2.90;99.90;;;;;;5048806;28;20045;-76
2021/12/28 07:58:52;;;;;;;86.90;41.38;;;2.90;99.90;;;;;;5040385;28;20009;-77
2021/12/28 08:01:17;;;;;;;86.10;40.00;;;2.90;99.90;;;;;;5058298;28;20036;-77
2021/12/28 08:03:43;;;;;;;91.05;42.10;;;2.90;99.90;;;;;;5058307;28;20010;-78
2021/12/28 08:06:09;;;;;;;86.72;41.20;;;2.90;99.90;;;;;;5032969;28;20037;-80
2021/12/28 08:08:34;;;;;;;85.47;41.20;;;2.90;99.90;;;;;;5048446;28;20034;-81
2021/12/28 08:11:00;;;;;;;87.80;41.42;;;2.90;99.90;;;;;;5027707;28;20029;-80
2021/12/28 08:13:26;;;;;;;93.05;44.17;;;2.90;99.90;;;;;;5023878;28;20561;-80
2021/12/28 08:15:52;;;;;;;87.80;41.53;;;2.90;99.90;;;;;;5043345;28;20029;-78
2021/12/28 08:18:18;;;;;;;88.00;41.65;;;2.90;99.90;;;;;;5046699;28;20033;-81
2021/12/28 08:20:43;;;;;;;87.05;41.72;;;2.90;99.90;;;;;;5046474;28;20393;-80
2021/12/28 08:23:09;;;;;;;91.65;41.78;;;2.90;99.90;;;;;;5043933;28;20059;-79
2021/12/28 08:25:35;;;;;;;89.35;43.58;;;2.90;99.90;;;;;;5046192;28;20040;-81
2021/12/28 08:28:04;;;;;;;91.68;41.38;;;2.90;99.90;;;;;;5028330;28;20033;-80
2021/12/28 08:30:31;;;;;;;89.25;42.47;;;3.00;99.90;;;;;;5045730;28;20520;-80
2021/12/28 08:32:57;;;;;;;82.07;41.00;;;3.00;99.90;;;;;;5046555;28;20029;-78
2021/12/28 08:35:23;;;;;;;90.63;41.00;;;3.00;99.90;;;;;;5028158;28;20096;-80
2021/12/28 08:37:49;;;;;;;87.30;43.45;;;3.00;99.90;;;;;;5044738;28;20477;-81
2021/12/28 08:40:16;;;;;;;91.45;40.95;;;3.10;99.90;;;;;;5027343;28;20036;-80
2021/12/28 08:42:42;;;;;;;94.13;42.55;;;3.10;99.90;;;;;;5043197;28;20034;-78
2021/12/28 08:45:08;;;;;;;90.80;43.35;;;3.10;99.90;;;;;;5047914;28;20166;-77
2021/12/28 08:47:34;;;;;;;89.05;40.92;;;3.10;99.90;;;;;;5047087;28;20037;-80
2021/12/28 08:50:00;;;;;;;87.93;42.35;;;3.10;99.90;;;;;;5027695;28;20021;-80
2021/12/28 08:52:26;;;;;;;93.22;44.00;;;3.10;99.90;;;;;;5039882;28;20104;-82
2021/12/28 08:54:52;;;;;;;96.85;44.33;;;3.10;99.90;;;;;;5043303;28;20021;-80
2021/12/28 08:57:19;;;;;;;97.75;45.35;;;3.10;99.90;;;;;;5054202;28;20085;-78
2021/12/28 08:59:46;;;;;;;93.30;45.58;;;3.20;99.90;;;;;;5027233;28;20033;-80
2021/12/28 09:02:11;;;;;;;97.95;45.28;;;3.10;99.90;;;;;;5040998;28;20083;-81
2021/12/28 09:04:42;;;;;;;105.88;46.35;;;3.20;99.90;;;;;;5023124;28;20116;-80
2021/12/28 09:07:09;;;;;;;99.18;46.00;;;3.20;99.90;;;;;;5040679;28;20022;-81
2021/12/28 09:09:35;;;;;;;97.60;45.95;;;3.20;99.90;;;;;;5043910;28;20032;-79
2021/12/28 09:12:00;;;;;;;108.50;47.17;;;3.20;99.90;;;;;;5048963;28;20025;-79
2021/12/28 09:14:26;;;;;;;101.25;46.15;;;3.20;99.90;;;;;;5050455;28;20036;-81
2021/12/28 09:16:51;;;;;;;106.28;45.90;;;3.20;99.90;;;;;;5032817;28;20455;-83
2021/12/28 09:19:17;;;;;;;111.50;47.92;;;3.30;99.90;;;;;;5048178;28;20032;-85
2021/12/28 09:21:42;;;;;;;110.28;50.28;;;3.20;99.90;;;;;;5047135;28;20034;-81
2021/12/28 09:24:08;;;;;;;109.45;48.47;;;3.20;99.90;;;;;;5048067;28;20041;-82
2021/12/28 09:26:35;;;;;;;111.93;48.30;;;3.20;99.90;;;;;;5044138;28;20037;-82
2021/12/28 09:29:00;;;;;;;109.13;48.50;;;3.20;99.90;;;;;;5027989;28;20022;-83
2021/12/28 09:31:26;;;;;;;111.22;49.60;;;3.20;99.90;;;;;;5042987;28;20026;-77
2021/12/28 09:33:52;;;;;;;106.50;48.20;;;3.20;99.90;;;;;;5038780;28;20027;-79
2021/12/28 09:36:19;;;;;;;114.45;50.38;;;3.30;99.90;;;;;;5041106;28;20180;-78
2021/12/28 09:38:45;;;;;;;120.28;49.25;;;3.40;99.90;;;;;;5044665;28;20041;-77
2021/12/28 09:41:11;;;;;;;109.80;49.63;;;3.30;99.90;;;;;;5040481;28;20029;-77
2021/12/28 09:43:38;;;;;;;124.03;49.58;;;3.30;99.90;;;;;;5038826;28;20033;-79
2021/12/28 09:46:04;;;;;;;121.68;51.40;;;3.30;99.90;;;;;;5051611;28;20132;-77
2021/12/28 09:48:31;;;;;;;122.15;53.08;;;3.30;99.90;;;;;;5033354;28;20017;-81
2021/12/28 09:50:58;;;;;;;123.85;53.83;;;3.30;99.90;;;;;;5037079;28;20026;-79
2021/12/28 09:53:24;;;;;;;131.18;54.63;;;3.30;99.90;;;;;;5054404;28;20032;-78
2021/12/28 09:55:49;;;;;;;124.90;51.80;;;3.30;99.90;;;;;;5047427;28;20022;-78
2021/12/28 09:58:15;;;;;;;123.80;52.63;;;3.30;99.90;;;;;;5046616;28;20033;-79
2021/12/28 10:00:41;;;;;;;117.10;50.47;;;3.20;99.90;;;;;;5025338;28;20029;-80
2021/12/28 10:03:07;;;;;;;119.78;50.92;;;3.30;99.90;;;;;;5025146;28;20044;-81
2021/12/28 10:05:33;;;;;;;124.40;52.88;;;3.30;99.90;;;;;;5046933;28;20040;-82
2021/12/28 10:08:01;;;;;;;126.90;51.88;;;3.30;99.90;;;;;;5025086;28;20041;-81
2021/12/28 10:10:30;;;;;;;131.80;54.40;;;3.30;99.90;;;;;;5023795;28;20048;-82
2021/12/28 10:13:02;;;;;;;119.65;51.83;;;3.30;99.90;;;;;;5043206;28;20093;-79
2021/12/28 10:15:30;;;;;;;122.13;52.95;;;3.40;99.90;;;;;;5032731;28;20156;-78
2021/12/28 10:17:59;;;;;;;130.10;53.72;;;3.30;99.90;;;;;;5047548;28;20036;-78
2021/12/28 10:20:32;;;;;;;123.68;52.42;;;3.30;99.90;;;;;;5038781;28;20026;-76
2021/12/28 10:23:02;;;;;;;127.88;53.15;;;3.40;99.90;;;;;;5040855;28;20036;-77
2021/12/28 10:25:37;;;;;;;132.23;55.95;;;3.30;99.90;;;;;;5037031;28;20441;-78
2021/12/28 10:28:06;;;;;;;128.38;54.22;;;3.30;99.90;;;;;;5043017;28;20037;-76
2021/12/28 10:30:43;;;;;;;131.25;53.20;;;3.30;99.90;;;;;;5049167;28;20026;-77
2021/12/28 10:33:12;;;;;;;128.27;53.85;;;3.40;99.90;;;;;;5055883;28;20040;-78
2021/12/28 10:35:44;;;;;;;120.85;51.85;;;3.40;99.90;;;;;;5053055;28;20025;-80
2021/12/28 10:38:16;;;;;;;124.55;51.83;;;3.50;99.90;;;;;;5042842;28;20530;-78
2021/12/28 10:40:45;;;;;;;135.50;52.75;;;3.50;99.90;;;;;;5025833;28;20029;-81
2021/12/28 10:43:31;;;;;;;134.15;54.30;;;3.50;99.90;;;;;;5044262;28;20022;-80
2021/12/28 10:46:01;;;;;;;136.30;53.58;;;3.50;99.90;;;;;;5046252;28;20057;-81
2021/12/28 10:48:46;;;;;;;138.55;55.67;;;3.50;99.90;;;;;;5026275;28;20033;-78
2021/12/28 10:51:23;;;;;;;127.78;52.08;;;3.50;99.90;;;;;;5049958;28;20025;-81
2021/12/28 10:54:11;;;;;;;137.70;55.08;;;3.50;99.90;;;;;;5051796;28;20112;-80
2021/12/28 10:56:49;;;;;;;143.60;53.85;;;3.60;99.90;;;;;;5047262;28;20028;-82
2021/12/28 10:59:21;;;;;;;135.73;55.80;;;3.60;99.90;;;;;;5050720;28;20021;-83
2021/12/28 11:01:48;;;;;;;134.77;54.75;;;3.60;99.90;;;;;;5051255;28;20021;-81
2021/12/28 11:04:14;;;;;;;135.63;56.85;;;3.60;99.90;;;;;;5057268;28;20032;-81
2021/12/28 11:06:44;;;;;;;151.95;54.30;;;3.60;99.90;;;;;;5053601;28;20087;-82
2021/12/28 11:09:13;;;;;;;128.98;53.10;;;3.60;99.90;;;;;;5049447;28;20021;-80
2021/12/28 11:11:40;;;;;;;134.48;54.15;;;3.60;99.90;;;;;;5028501;28;20021;-82
2021/12/28 11:14:14;;;;;;;127.60;52.47;;;3.80;99.90;;;;;;5027687;28;20474;-82
2021/12/28 11:16:39;;;;;;;102.28;40.20;;;3.70;99.90;;;;;;5052194;28;20014;-79
2021/12/28 11:19:08;;;;;;;131.75;55.30;;;3.70;99.90;;;;;;5055139;28;20044;-82
2021/12/28 11:21:40;;;;;;;133.52;54.25;;;3.60;99.90;;;;;;5053249;28;20068;-81
2021/12/28 11:24:10;;;;;;;147.07;57.42;;;3.70;99.90;;;;;;5041942;28;20021;-81
2021/12/28 11:26:44;;;;;;;142.95;55.63;;;3.60;99.90;;;;;;5041155;28;20025;-81
2021/12/28 11:29:13;;;;;;;130.57;53.88;;;3.70;99.90;;;;;;5040934;28;20033;-80
2021/12/28 11:31:44;;;;;;;129.68;54.30;;;3.70;99.90;;;;;;5046365;28;20053;-76
2021/12/28 11:34:31;;;;;;;130.85;54.17;;;3.70;99.90;;;;;;5050151;28;20104;-78
2021/12/28 11:37:06;;;;;;;131.45;55.45;;;3.70;99.90;;;;;;5031525;28;20031;-82
2021/12/28 11:39:35;;;;;;;131.93;52.45;;;3.60;99.90;;;;;;5048147;28;20075;-82
2021/12/28 11:42:02;;;;;;;129.82;52.75;;;3.60;99.90;;;;;;5052295;28;20085;-79
2021/12/28 11:44:32;;;;;;;131.45;54.53;;;3.60;99.90;;;;;;5050437;28;20028;-80
2021/12/28 11:46:59;;;;;;;137.20;55.72;;;3.60;99.90;;;;;;5022513;28;20025;-81
2021/12/28 11:49:28;;;;;;;143.00;55.22;;;3.70;99.90;;;;;;5042123;28;20573;-79
2021/12/28 11:51:58;;;;;;;139.80;52.88;;;3.70;99.90;;;;;;5027360;28;20030;-80
2021/12/28 11:54:24;;;;;;;128.60;52.33;;;3.70;99.90;;;;;;5047614;28;20081;-82
2021/12/28 11:56:57;;;;;;;138.25;55.05;;;3.70;99.90;;;;;;5047374;28;20029;-79
2021/12/28 11:59:30;;;;;;;124.22;53.22;;;3.70;99.90;;;;;;5040341;28;20028;-79
2021/12/28 12:01:57;;;;;;;120.10;52.08;;;3.70;99.90;;;;;;5022629;28;20025;-80
2021/12/28 12:04:32;;;;;;;127.95;53.05;;;3.80;99.90;;;;;;5040640;28;20018;-81
2021/12/28 12:07:04;;;;;;;121.70;50.85;;;3.80;99.90;;;;;;5039810;28;20025;-82
2021/12/28 12:09:32;;;;;;;126.43;51.92;;;3.80;99.90;;;;;;5040480;28;20017;-81
2021/12/28 12:12:16;;;;;;;128.35;53.90;;;3.80;99.90;;;;;;5022986;28;20496;-82
2021/12/28 12:14:51;;;;;;;139.07;55.70;;;3.90;99.90;;;;;;5022668;28;20297;-81
2021/12/28 12:17:37;;;;;;;118.03;50.47;;;3.90;99.90;;;;;;5022571;28;20460;-80
2021/12/28 12:20:27;;;;;;;118.18;49.45;;;3.90;99.90;;;;;;5024405;28;20139;-81
2021/12/28 12:23:05;;;;;;;135.35;50.78;;;3.90;99.90;;;;;;5043372;28;20034;-81
2021/12/28 12:25:49;;;;;;;124.30;51.10;;;3.90;99.90;;;;;;5027631;28;20037;-79
2021/12/28 12:28:20;;;;;;;92.53;36.90;;;3.90;99.90;;;;;;5048393;28;20090;-79
2021/12/28 12:30:47;;;;;;;130.55;51.17;;;3.90;99.90;;;;;;5050299;28;20026;-82
2021/12/28 12:33:15;;;;;;;124.15;51.47;;;3.90;99.90;;;;;;5049396;28;20033;-80
2021/12/28 12:35:57;;;;;;;120.57;53.35;;;3.90;99.90;;;;;;5034145;28;20028;-81
2021/12/28 12:38:24;;;;;;;121.10;50.88;;;3.90;99.90;;;;;;5044894;28;20033;-77